This is the latest recevied weather packets stored in our database for station/object E27EKO-13. If no packets are shown the sender has not sent any weather packets the latest 10 day(s).
| Time | Temp. | Humidity | Pressure | Rain* | Wind** | Luminosity | Snow |
|---|---|---|---|---|---|---|---|
| 1777284306 | 37.22° C | 56% | 1005 hPa | - | - | 0 W/m² | - |
| 1777283992 | 37.78° C | 53% | 1005 hPa | - | - | 0 W/m² | - |
| 1777283670 | 38.89° C | 51% | 1005 hPa | - | - | 0 W/m² | - |
| 1777283348 | 39.44° C | 51% | 1005 hPa | - | - | 0 W/m² | - |
| 1777283026 | 40.56° C | 48% | 1005 hPa | - | - | 0 W/m² | - |
| 1777282704 | 41.11° C | 47% | 1005 hPa | - | - | 0 W/m² | - |
| 1777282526 | 41.67° C | 47% | 1005 hPa | - | - | 0 W/m² | - |
| 1777282204 | 41.67° C | 46% | 1005 hPa | - | - | 0 W/m² | - |
| 1777281882 | 41.67° C | 45% | 1005 hPa | - | - | 0 W/m² | - |
| 1777281560 | 42.22° C | 45% | 1005 hPa | - | - | 0 W/m² | - |
| 1777281238 | 42.22° C | 46% | 1005 hPa | - | - | 0 W/m² | - |
| 1777280916 | 41.67° C | 44% | 1005 hPa | - | - | 0 W/m² | - |
| 1777280593 | 42.22° C | 45% | 1005 hPa | - | - | 0 W/m² | - |
| 1777280271 | 41.67° C | 46% | 1005 hPa | - | - | 0 W/m² | - |
| 1777279949 | 41.11° C | 47% | 1005 hPa | - | - | 0 W/m² | - |
| 1777279630 | 41.11° C | 47% | 1005 hPa | - | - | 0 W/m² | - |
| 1777279305 | 40.56° C | 49% | 1005 hPa | - | - | 0 W/m² | - |
| 1777278983 | 40° C | 52% | 1005 hPa | - | - | 0 W/m² | - |
| 1777278861 | 39.44° C | 53% | 1005 hPa | - | - | 0 W/m² | - |
| 1777278539 | 38.89° C | 54% | 1005 hPa | - | - | 0 W/m² | - |
| 1777278217 | 38.89° C | 54% | 1005 hPa | - | - | 0 W/m² | - |
| 1777277895 | 38.33° C | 58% | 1005 hPa | - | - | 0 W/m² | - |
| 1777277573 | 38.33° C | 57% | 1005 hPa | - | - | 0 W/m² | - |
| 1777277384 | 38.33° C | 58% | 1005 hPa | - | - | 0 W/m² | - |
| 1777277062 | 38.89° C | 58% | 1005 hPa | - | - | 0 W/m² | - |
* Rain since midnight (hover to see other rain measurements)
** Current wind speed in m/s (hover to see current wind gust speed)